Time;durP1;ratioP1;P1;durP2;ratioP2;P2;SDS_P1;SDS_P2;PMS_P1;PMS_P2;Temp;Humidity;BMP_temperature;BMP_pressure;BME280_temperature;BME280_humidity;BME280_pressure;Samples;Min_cycle;Max_cycle;Signal;HPM_P1;HPM_P2
2023/07/21 00:00:58;;;;;;;;;;;18.00;99.50;;;;;;5073160;28;19924;-81
2023/07/21 00:03:24;;;;;;;;;;;17.90;99.50;;;;;;5071321;28;19927;-79
2023/07/21 00:05:49;;;;;;;;;;;17.90;99.50;;;;;;5061213;28;19921;-81
2023/07/21 00:08:15;;;;;;;;;;;17.90;99.60;;;;;;5054999;28;19956;-80
2023/07/21 00:10:40;;;;;;;;;;;17.80;99.60;;;;;;5057952;28;19940;-81
2023/07/21 00:13:06;;;;;;;;;;;17.80;99.60;;;;;;5056261;28;19919;-81
2023/07/21 00:15:32;;;;;;;;;;;17.80;99.70;;;;;;5057341;28;19965;-81
2023/07/21 00:17:58;;;;;;;;;;;17.80;99.70;;;;;;5058602;28;19917;-81
2023/07/21 00:20:24;;;;;;;;;;;17.80;99.70;;;;;;5060298;28;19916;-81
2023/07/21 00:22:50;;;;;;;;;;;17.70;99.70;;;;;;5062673;28;19917;-81
2023/07/21 00:25:15;;;;;;;;;;;17.70;99.80;;;;;;5070310;28;19948;-81
2023/07/21 00:27:41;;;;;;;;;;;17.70;99.80;;;;;;5061157;28;19939;-81
2023/07/21 00:30:07;;;;;;;;;;;17.60;99.80;;;;;;5058807;28;19948;-84
2023/07/21 00:32:36;;;;;;;;;;;17.60;99.90;;;;;;5078713;28;19917;-80
2023/07/21 00:35:04;;;;;;;;;;;17.60;99.90;;;;;;5076805;28;19936;-81
2023/07/21 00:37:29;;;;;;;;;;;17.50;99.90;;;;;;5051498;28;20189;-82
2023/07/21 00:39:55;;;;;;;;;;;17.50;99.90;;;;;;5043540;28;20595;-84
2023/07/21 00:42:20;;;;;;;;;;;17.50;99.90;;;;;;5042829;28;20030;-82
2023/07/21 00:44:46;;;;;;;;;;;17.50;99.90;;;;;;5040247;28;19956;-83
2023/07/21 00:47:11;;;;;;;;;;;17.50;99.90;;;;;;5039638;28;19980;-84
2023/07/21 00:49:37;;;;;;;;;;;17.50;99.90;;;;;;5042981;28;19923;-83
2023/07/21 00:52:03;;;;;;;;;;;17.40;99.90;;;;;;5042383;28;19960;-84
2023/07/21 00:54:28;;;;;;;;;;;17.40;99.90;;;;;;5041871;28;19920;-83
2023/07/21 00:56:54;;;;;;;;;;;17.40;99.90;;;;;;5043198;28;20259;-84
2023/07/21 00:59:20;;;;;;;;;;;17.40;99.90;;;;;;5059639;28;20282;-84
2023/07/21 01:01:45;;;;;;;;;;;17.40;99.90;;;;;;5042670;28;19932;-82
2023/07/21 01:04:11;;;;;;;;;;;17.40;99.90;;;;;;5042787;28;20321;-82
2023/07/21 01:06:38;;;;;;;;;;;17.30;99.90;;;;;;5044716;28;19924;-82
2023/07/21 01:09:06;;;;;;;;;;;17.30;99.90;;;;;;5041523;28;20279;-84
2023/07/21 01:11:33;;;;;;;;;;;17.20;99.90;;;;;;5057317;28;20422;-82
2023/07/21 01:14:00;;;;;;;;;;;17.20;99.90;;;;;;5042208;28;19959;-83
2023/07/21 01:16:25;;;;;;;;;;;17.20;99.90;;;;;;5077627;28;20379;-83
2023/07/21 01:18:53;;;;;;;;;;;17.20;99.90;;;;;;5043783;28;19958;-83
2023/07/21 01:21:35;;;;;;;;;;;17.20;99.90;;;;;;5072416;28;20010;-82
2023/07/21 01:24:05;;;;;;;;;;;17.20;99.90;;;;;;5039902;28;19917;-84
2023/07/21 01:26:31;;;;;;;;;;;17.20;99.90;;;;;;5059021;28;19965;-82
2023/07/21 01:28:57;;;;;;;;;;;17.10;99.90;;;;;;5043085;28;19917;-85
2023/07/21 01:31:23;;;;;;;;;;;17.10;99.90;;;;;;5049576;28;20409;-84
2023/07/21 01:33:50;;;;;;;;;;;17.10;99.90;;;;;;5040709;28;20052;-83
2023/07/21 01:36:16;;;;;;;;;;;17.10;99.90;;;;;;5057113;28;19921;-85
2023/07/21 01:38:42;;;;;;;;;;;17.00;99.90;;;;;;5039088;28;19913;-85
2023/07/21 01:41:08;;;;;;;;;;;17.00;99.90;;;;;;5039189;28;19994;-86
2023/07/21 01:43:34;;;;;;;;;;;16.90;99.90;;;;;;5036967;28;19956;-85
2023/07/21 01:45:59;;;;;;;;;;;17.00;99.90;;;;;;5054791;28;19952;-85
2023/07/21 01:48:24;;;;;;;;;;;16.90;99.90;;;;;;5041129;28;19917;-85
2023/07/21 01:50:51;;;;;;;;;;;16.80;99.90;;;;;;5040665;28;20377;-83
2023/07/21 01:53:20;;;;;;;;;;;16.80;99.90;;;;;;5041072;28;19990;-83
2023/07/21 01:56:07;;;;;;;;;;;16.70;99.90;;;;;;5072909;28;19916;-84
2023/07/21 01:58:34;;;;;;;;;;;16.70;99.90;;;;;;5052327;28;19921;-83
2023/07/21 02:01:00;;;;;;;;;;;16.60;99.90;;;;;;5042471;28;19940;-82
2023/07/21 02:03:26;;;;;;;;;;;16.50;99.90;;;;;;5040390;28;19913;-83
2023/07/21 02:05:52;;;;;;;;;;;16.40;99.90;;;;;;5041462;28;19920;-83
2023/07/21 02:08:20;;;;;;;;;;;16.40;99.90;;;;;;5055208;28;19916;-83
2023/07/21 02:10:46;;;;;;;;;;;16.40;99.90;;;;;;5036593;28;19924;-82
2023/07/21 02:13:13;;;;;;;;;;;16.30;99.90;;;;;;5034155;28;19917;-83
2023/07/21 02:15:39;;;;;;;;;;;16.20;99.90;;;;;;5042171;28;19924;-83
2023/07/21 02:18:04;;;;;;;;;;;16.20;99.90;;;;;;5061003;28;19924;-84
2023/07/21 02:20:30;;;;;;;;;;;16.20;99.90;;;;;;5035426;28;20413;-83
2023/07/21 02:22:55;;;;;;;;;;;16.20;99.90;;;;;;5033723;28;20003;-84
2023/07/21 02:25:21;;;;;;;;;;;16.10;99.90;;;;;;5032930;28;19932;-83
2023/07/21 02:27:46;;;;;;;;;;;16.10;99.90;;;;;;5031898;28;19940;-83
2023/07/21 02:30:12;;;;;;;;;;;16.10;99.90;;;;;;5031059;28;19928;-81
2023/07/21 02:32:37;;;;;;;;;;;16.00;99.90;;;;;;5041232;28;19921;-82
2023/07/21 02:35:06;;;;;;;;;;;16.00;99.90;;;;;;5033282;28;19992;-83
2023/07/21 02:37:31;;;;;;;;;;;16.00;99.90;;;;;;5030974;28;20031;-83
2023/07/21 02:39:56;;;;;;;;;;;16.00;99.90;;;;;;5040797;28;20003;-83
2023/07/21 02:42:22;;;;;;;;;;;15.90;99.90;;;;;;5047352;28;19913;-85
2023/07/21 02:44:47;;;;;;;;;;;15.90;99.90;;;;;;5047418;28;20356;-83
2023/07/21 02:47:16;;;;;;;;;;;15.90;99.90;;;;;;5027665;28;20019;-83
2023/07/21 02:49:42;;;;;;;;;;;15.90;99.90;;;;;;5033734;28;20002;-84
2023/07/21 02:52:08;;;;;;;;;;;15.80;99.90;;;;;;5033747;28;20388;-82
2023/07/21 02:54:33;;;;;;;;;;;15.70;99.90;;;;;;5029270;28;19924;-82
2023/07/21 02:56:59;;;;;;;;;;;15.70;99.90;;;;;;5048595;28;19922;-82
2023/07/21 02:59:26;;;;;;;;;;;15.70;99.90;;;;;;5029360;28;19924;-82
2023/07/21 03:01:57;;;;;;;;;;;15.70;99.90;;;;;;5032328;28;20014;-83
2023/07/21 03:04:23;;;;;;;;;;;15.60;99.90;;;;;;5035673;28;20321;-82
2023/07/21 03:06:49;;;;;;;;;;;15.60;99.90;;;;;;5035565;28;19960;-82
2023/07/21 03:09:14;;;;;;;;;;;15.50;99.90;;;;;;5035029;28;19912;-84
2023/07/21 03:11:40;;;;;;;;;;;15.50;99.90;;;;;;5037611;28;19917;-82
2023/07/21 03:14:06;;;;;;;;;;;15.50;99.90;;;;;;5040677;28;19963;-81
2023/07/21 03:16:32;;;;;;;;;;;15.60;99.90;;;;;;5044835;28;20051;-84
2023/07/21 03:18:57;;;;;;;;;;;15.60;99.90;;;;;;5046553;28;19941;-82
2023/07/21 03:21:23;;;;;;;;;;;15.50;99.90;;;;;;5043346;28;20270;-84
2023/07/21 03:23:48;;;;;;;;;;;15.50;99.90;;;;;;5045270;28;19913;-84
2023/07/21 03:26:14;;;;;;;;;;;15.50;99.90;;;;;;5039323;28;20353;-83
2023/07/21 03:28:39;;;;;;;;;;;15.40;99.90;;;;;;5043165;28;19971;-84
2023/07/21 03:31:05;;;;;;;;;;;15.40;99.90;;;;;;5042433;28;19917;-85
2023/07/21 03:33:30;;;;;;;;;;;15.40;99.90;;;;;;5030188;28;19917;-85
2023/07/21 03:36:00;;;;;;;;;;;15.40;99.90;;;;;;5037175;28;19924;-83
2023/07/21 03:38:25;;;;;;;;;;;15.40;99.90;;;;;;5036823;28;20409;-84
2023/07/21 03:40:58;;;;;;;;;;;15.40;99.90;;;;;;5033390;28;19914;-82
2023/07/21 03:43:24;;;;;;;;;;;15.30;99.90;;;;;;5032422;28;19913;-84
2023/07/21 03:45:55;;;;;;;;;;;15.30;99.90;;;;;;5035402;28;19939;-82
2023/07/21 03:48:21;;;;;;;;;;;15.30;99.90;;;;;;5042545;28;19913;-84
2023/07/21 03:50:46;;;;;;;;;;;15.30;99.90;;;;;;5056052;28;20346;-81
2023/07/21 03:53:11;;;;;;;;;;;15.30;99.90;;;;;;5037220;28;19982;-84
2023/07/21 03:55:38;;;;;;;;;;;15.20;99.90;;;;;;5043054;28;19912;-84
2023/07/21 03:58:04;;;;;;;;;;;15.20;99.90;;;;;;5034025;28;20260;-85
2023/07/21 04:00:29;;;;;;;;;;;15.20;99.90;;;;;;5034326;28;19920;-84
2023/07/21 04:02:55;;;;;;;;;;;15.20;99.90;;;;;;5035071;28;19913;-84
2023/07/21 04:05:20;;;;;;;;;;;15.20;99.90;;;;;;5037048;28;20359;-81
2023/07/21 04:07:46;;;;;;;;;;;15.20;99.90;;;;;;5036524;28;20281;-85
2023/07/21 04:10:12;;;;;;;;;;;15.10;99.90;;;;;;5035435;28;20402;-83
2023/07/21 04:12:37;;;;;;;;;;;15.10;99.90;;;;;;5032824;28;19913;-83
2023/07/21 04:15:03;;;;;;;;;;;15.10;99.90;;;;;;5032907;28;19913;-84
2023/07/21 04:17:28;;;;;;;;;;;15.10;99.90;;;;;;5037757;28;19913;-83
2023/07/21 04:19:56;;;;;;;;;;;15.10;99.90;;;;;;5052302;28;20383;-83
2023/07/21 04:22:22;;;;;;;;;;;15.10;99.90;;;;;;5065445;28;19913;-83
2023/07/21 04:24:48;;;;;;;;;;;15.20;99.90;;;;;;5033835;28;19986;-84
2023/07/21 04:27:13;;;;;;;;;;;15.20;99.90;;;;;;5032470;28;19972;-84
2023/07/21 04:29:39;;;;;;;;;;;15.30;99.90;;;;;;5037555;28;20385;-84
2023/07/21 04:32:05;;;;;;;;;;;15.30;99.90;;;;;;5032365;28;19997;-84
2023/07/21 04:34:30;;;;;;;;;;;15.40;99.90;;;;;;5031352;28;19936;-83
2023/07/21 04:36:56;;;;;;;;;;;15.40;99.90;;;;;;5035046;28;19916;-82
2023/07/21 04:39:21;;;;;;;;;;;15.50;99.90;;;;;;5036549;28;19913;-84
2023/07/21 04:41:46;;;;;;;;;;;15.50;99.90;;;;;;5035770;28;19913;-81
2023/07/21 04:44:12;;;;;;;;;;;15.60;99.90;;;;;;5055022;28;19913;-84
2023/07/21 04:46:37;;;;;;;;;;;15.60;99.90;;;;;;5047874;28;19935;-83
2023/07/21 04:49:07;;;;;;;;;;;15.70;99.90;;;;;;5035035;28;20051;-83
2023/07/21 04:51:32;;;;;;;;;;;15.70;99.90;;;;;;5032934;28;19920;-83
2023/07/21 04:53:58;;;;;;;;;;;15.70;99.90;;;;;;5040360;28;19917;-83
2023/07/21 04:56:25;;;;;;;;;;;15.80;99.90;;;;;;5034692;28;20299;-83
2023/07/21 04:58:50;;;;;;;;;;;15.70;99.90;;;;;;5041621;28;20018;-85
2023/07/21 05:01:16;;;;;;;;;;;15.80;99.90;;;;;;5042218;28;19970;-82
2023/07/21 05:03:42;;;;;;;;;;;15.70;99.90;;;;;;5040683;28;19928;-83
2023/07/21 05:06:09;;;;;;;;;;;15.70;99.90;;;;;;5042344;28;19951;-82
2023/07/21 05:08:35;;;;;;;;;;;15.60;99.90;;;;;;5040182;28;19920;-82
2023/07/21 05:11:00;;;;;;;;;;;15.60;99.90;;;;;;5072165;28;20007;-83
2023/07/21 05:13:26;;;;;;;;;;;15.60;99.90;;;;;;5039182;28;19921;-82
2023/07/21 05:15:51;;;;;;;;;;;15.50;99.90;;;;;;5042103;28;19917;-82
2023/07/21 05:18:17;;;;;;;;;;;15.50;99.90;;;;;;5048608;28;19913;-83
2023/07/21 05:20:42;;;;;;;;;;;15.40;99.90;;;;;;5041254;28;19924;-82
2023/07/21 05:23:09;;;;;;;;;;;15.40;99.90;;;;;;5038282;28;19974;-82
2023/07/21 05:25:34;;;;;;;;;;;15.40;99.90;;;;;;5038122;28;20003;-83
2023/07/21 05:28:00;;;;;;;;;;;15.40;99.90;;;;;;5039272;28;19925;-84
2023/07/21 05:30:25;;;;;;;;;;;15.40;99.90;;;;;;5036229;28;19970;-83
2023/07/21 05:32:51;;;;;;;;;;;15.40;99.90;;;;;;5036233;28;20366;-81
2023/07/21 05:35:16;;;;;;;;;;;15.50;99.90;;;;;;5035478;28;20355;-82
2023/07/21 05:37:42;;;;;;;;;;;15.50;99.90;;;;;;5035211;28;19917;-82
2023/07/21 05:40:09;;;;;;;;;;;15.60;99.90;;;;;;5034882;28;19913;-83
2023/07/21 05:42:35;;;;;;;;;;;15.60;99.90;;;;;;5034828;28;19916;-82
2023/07/21 05:45:01;;;;;;;;;;;15.70;99.90;;;;;;5035778;28;19917;-83
2023/07/21 05:47:27;;;;;;;;;;;15.80;99.90;;;;;;5032829;28;19951;-80
2023/07/21 05:50:00;;;;;;;;;;;15.90;99.90;;;;;;5049934;28;19917;-82
2023/07/21 05:52:26;;;;;;;;;;;16.00;99.90;;;;;;5034952;28;20781;-81
2023/07/21 05:54:52;;;;;;;;;;;16.10;99.90;;;;;;5035377;28;19925;-82
2023/07/21 05:57:18;;;;;;;;;;;16.20;99.90;;;;;;5050920;28;19920;-81
2023/07/21 05:59:45;;;;;;;;;;;16.30;99.90;;;;;;5037040;28;19917;-81
2023/07/21 06:02:11;;;;;;;;;;;16.40;99.90;;;;;;5035138;28;19925;-79
2023/07/21 06:04:36;;;;;;;;;;;16.50;99.90;;;;;;5033965;28;19917;-81
2023/07/21 06:07:02;;;;;;;;;;;16.60;99.90;;;;;;5032999;28;20459;-80
2023/07/21 06:09:28;;;;;;;;;;;16.70;99.90;;;;;;5032147;28;20016;-81
2023/07/21 06:11:54;;;;;;;;;;;16.80;99.90;;;;;;5033998;28;19921;-79
2023/07/21 06:14:19;;;;;;;;;;;16.80;99.90;;;;;;5045387;28;19927;-80
2023/07/21 06:16:45;;;;;;;;;;;16.90;99.90;;;;;;5051180;28;20293;-81
2023/07/21 06:19:10;;;;;;;;;;;17.00;99.90;;;;;;5041104;28;19928;-82
2023/07/21 06:21:36;;;;;;;;;;;17.00;99.90;;;;;;5042854;28;19921;-81
2023/07/21 06:24:01;;;;;;;;;;;17.10;99.90;;;;;;5035788;28;20371;-82
2023/07/21 06:26:27;;;;;;;;;;;17.10;99.90;;;;;;5044737;28;19925;-82
2023/07/21 06:28:52;;;;;;;;;;;17.20;99.90;;;;;;5036123;28;19917;-81
2023/07/21 06:31:18;;;;;;;;;;;17.20;99.90;;;;;;5034424;28;19914;-81
2023/07/21 06:33:43;;;;;;;;;;;17.20;99.90;;;;;;5033792;28;19964;-81
2023/07/21 06:36:09;;;;;;;;;;;17.20;99.90;;;;;;5034635;28;19917;-81
2023/07/21 06:38:35;;;;;;;;;;;17.30;99.90;;;;;;5035287;28;19917;-82
2023/07/21 06:41:04;;;;;;;;;;;17.40;99.90;;;;;;5049937;28;20016;-81
2023/07/21 06:43:30;;;;;;;;;;;17.50;99.90;;;;;;5044960;28;20540;-81
2023/07/21 06:45:56;;;;;;;;;;;17.50;99.90;;;;;;5031480;28;19924;-82
2023/07/21 06:48:21;;;;;;;;;;;17.60;99.90;;;;;;5031614;28;19921;-84
2023/07/21 06:50:47;;;;;;;;;;;17.60;99.90;;;;;;5032508;28;19928;-83
2023/07/21 06:53:13;;;;;;;;;;;17.70;99.90;;;;;;5034189;28;19939;-83
2023/07/21 06:55:39;;;;;;;;;;;17.90;99.90;;;;;;5035912;28;19964;-83
2023/07/21 06:58:04;;;;;;;;;;;18.00;99.90;;;;;;5036748;28;19931;-83
2023/07/21 07:00:30;;;;;;;;;;;18.20;99.90;;;;;;5043563;28;19921;-85
2023/07/21 07:02:56;;;;;;;;;;;18.30;99.90;;;;;;5032256;28;19960;-84
2023/07/21 07:05:23;;;;;;;;;;;18.40;99.90;;;;;;5029486;28;19917;-84
2023/07/21 07:07:53;;;;;;;;;;;18.60;99.90;;;;;;5032875;28;19925;-84
2023/07/21 07:10:21;;;;;;;;;;;18.80;99.90;;;;;;5042216;28;19974;-85
2023/07/21 07:12:47;;;;;;;;;;;18.90;99.90;;;;;;5031692;28;20330;-86
2023/07/21 07:15:12;;;;;;;;;;;19.10;99.90;;;;;;5047338;28;19966;-85
2023/07/21 07:17:38;;;;;;;;;;;19.10;99.90;;;;;;5049631;28;19921;-85
2023/07/21 07:20:04;;;;;;;;;;;19.20;99.90;;;;;;5030874;28;19921;-87
2023/07/21 07:22:29;;;;;;;;;;;19.30;99.90;;;;;;5031820;28;20283;-86
2023/07/21 07:24:55;;;;;;;;;;;19.40;99.90;;;;;;5033712;28;19928;-86
2023/07/21 07:27:20;;;;;;;;;;;19.40;99.90;;;;;;5039130;28;20050;-85
2023/07/21 07:29:47;;;;;;;;;;;19.60;99.90;;;;;;5031432;28;19917;-84
2023/07/21 07:32:13;;;;;;;;;;;19.70;99.90;;;;;;5039284;28;20011;-84
2023/07/21 07:34:39;;;;;;;;;;;19.90;99.90;;;;;;5030882;28;19917;-84
2023/07/21 07:37:04;;;;;;;;;;;20.00;99.90;;;;;;5032989;28;19921;-84
2023/07/21 07:39:30;;;;;;;;;;;20.10;99.90;;;;;;5048072;28;20253;-84
2023/07/21 07:41:55;;;;;;;;;;;20.20;99.90;;;;;;5039159;28;20023;-84
2023/07/21 07:44:21;;;;;;;;;;;20.40;99.90;;;;;;5028671;28;19917;-84
2023/07/21 07:46:46;;;;;;;;;;;20.50;99.90;;;;;;5047229;28;19929;-86
2023/07/21 07:49:11;;;;;;;;;;;20.60;99.90;;;;;;5029628;28;20354;-83
2023/07/21 07:51:38;;;;;;;;;;;20.70;99.90;;;;;;5048762;28;19921;-83
2023/07/21 07:54:10;;;;;;;;;;;20.80;99.90;;;;;;5035039;28;19917;-83
2023/07/21 07:56:35;;;;;;;;;;;20.90;99.90;;;;;;5036134;28;19917;-85
2023/07/21 07:59:01;;;;;;;;;;;20.80;99.90;;;;;;5036110;28;20318;-86
2023/07/21 08:01:26;;;;;;;;;;;20.80;99.90;;;;;;5045646;28;19934;-85
2023/07/21 08:03:53;;;;;;;;;;;20.80;99.90;;;;;;5034653;28;19956;-85
2023/07/21 08:06:19;;;;;;;;;;;20.80;99.90;;;;;;5035366;28;19924;-85
2023/07/21 08:08:45;;;;;;;;;;;20.90;99.90;;;;;;5044884;28;19924;-85
2023/07/21 08:11:11;;;;;;;;;;;21.10;99.90;;;;;;5033847;28;19920;-85
2023/07/21 08:13:38;;;;;;;;;;;21.20;99.90;;;;;;5033259;28;19991;-85
2023/07/21 08:16:07;;;;;;;;;;;21.20;99.90;;;;;;5035526;28;20012;-86
2023/07/21 08:18:33;;;;;;;;;;;21.10;99.90;;;;;;5034053;28;20048;-84
2023/07/21 08:20:58;;;;;;;;;;;21.00;99.90;;;;;;5041270;28;19917;-84
2023/07/21 08:23:24;;;;;;;;;;;21.10;99.90;;;;;;5036216;28;19917;-85
2023/07/21 08:25:49;;;;;;;;;;;21.10;99.90;;;;;;5033275;28;19951;-85
2023/07/21 08:28:15;;;;;;;;;;;21.10;99.90;;;;;;5033723;28;19956;-86
2023/07/21 08:30:40;;;;;;;;;;;21.20;99.90;;;;;;5042413;28;19917;-85
2023/07/21 08:33:06;;;;;;;;;;;21.20;99.90;;;;;;5033040;28;20647;-86
2023/07/21 08:35:33;;;;;;;;;;;21.20;99.90;;;;;;5033961;28;19924;-85
2023/07/21 08:37:58;;;;;;;;;;;21.20;99.90;;;;;;5037003;28;20011;-85
2023/07/21 08:40:23;;;;;;;;;;;21.20;99.90;;;;;;5033651;28;20605;-85
2023/07/21 08:42:50;;;;;;;;;;;21.30;99.90;;;;;;5033896;28;19917;-86
2023/07/21 08:45:15;;;;;;;;;;;21.40;99.90;;;;;;5048893;28;19921;-86
2023/07/21 08:47:41;;;;;;;;;;;21.40;99.80;;;;;;5031283;28;20310;-85
2023/07/21 08:50:07;;;;;;;;;;;21.60;99.80;;;;;;5034069;28;19917;-85
2023/07/21 08:52:33;;;;;;;;;;;21.70;99.70;;;;;;5034745;28;20705;-85
2023/07/21 08:54:59;;;;;;;;;;;21.80;99.50;;;;;;5047967;28;19916;-85
2023/07/21 08:57:26;;;;;;;;;;;21.90;99.40;;;;;;5048237;28;19925;-86
2023/07/21 08:59:55;;;;;;;;;;;21.90;99.40;;;;;;5034021;28;19927;-86
2023/07/21 09:02:36;;;;;;;;;;;21.90;99.10;;;;;;5048520;28;19973;-84
2023/07/21 09:05:01;;;;;;;;;;;21.90;98.70;;;;;;5034709;28;19939;-84
2023/07/21 09:07:30;;;;;;;;;;;21.80;98.60;;;;;;5035552;28;20465;-84
2023/07/21 09:09:55;;;;;;;;;;;21.70;98.80;;;;;;5032658;28;19966;-84
2023/07/21 09:12:21;;;;;;;;;;;21.90;98.80;;;;;;5045525;28;19921;-83
2023/07/21 09:14:47;;;;;;;;;;;21.90;98.20;;;;;;5043713;28;19917;-85
2023/07/21 09:17:13;;;;;;;;;;;21.80;98.30;;;;;;5033740;28;19948;-85
2023/07/21 09:19:39;;;;;;;;;;;21.70;98.30;;;;;;5049117;28;19925;-83
2023/07/21 09:22:06;;;;;;;;;;;21.80;98.30;;;;;;5034164;28;19917;-83
2023/07/21 09:24:32;;;;;;;;;;;21.80;97.70;;;;;;5046945;28;19974;-83
2023/07/21 09:27:13;;;;;;;;;;;21.80;97.60;;;;;;5031365;28;19942;-82
2023/07/21 09:29:40;;;;;;;;;;;21.90;97.80;;;;;;5048841;28;19970;-84
2023/07/21 09:32:13;;;;;;;;;;;22.20;97.90;;;;;;5034825;28;19996;-85
2023/07/21 09:34:57;;;;;;;;;;;22.60;97.70;;;;;;5049165;28;19912;-83
2023/07/21 09:37:24;;;;;;;;;;;23.00;97.50;;;;;;5033392;28;19939;-85
2023/07/21 09:39:57;;;;;;;;;;;23.40;97.20;;;;;;5031347;28;19916;-86
2023/07/21 09:42:23;;;;;;;;;;;23.50;96.80;;;;;;5047337;28;19917;-84
2023/07/21 09:44:49;;;;;;;;;;;23.70;96.80;;;;;;5066663;28;20924;-85
2023/07/21 09:47:15;;;;;;;;;;;24.40;96.70;;;;;;5034455;28;19925;-87
2023/07/21 09:49:41;;;;;;;;;;;25.30;95.80;;;;;;5032082;28;20003;-88
2023/07/21 09:52:08;;;;;;;;;;;26.00;95.50;;;;;;5032041;28;20411;-84
2023/07/21 09:54:34;;;;;;;;;;;26.30;94.40;;;;;;5032377;28;19916;-85
2023/07/21 09:57:01;;;;;;;;;;;26.30;94.30;;;;;;5047943;28;19940;-86
2023/07/21 09:59:30;;;;;;;;;;;26.80;92.60;;;;;;5049141;28;19924;-87
2023/07/21 10:01:56;;;;;;;;;;;26.60;93.10;;;;;;5048602;28;19917;-84
2023/07/21 10:04:23;;;;;;;;;;;26.20;93.70;;;;;;5046035;28;19959;-84
2023/07/21 10:06:48;;;;;;;;;;;25.90;93.90;;;;;;5032562;28;19936;-83
2023/07/21 10:09:16;;;;;;;;;;;25.70;94.00;;;;;;5047378;28;19917;-83
2023/07/21 10:11:46;;;;;;;;;;;25.50;94.20;;;;;;5031334;28;20271;-82
2023/07/21 10:14:31;;;;;;;;;;;25.60;94.40;;;;;;5032881;28;19927;-81
2023/07/21 10:16:56;;;;;;;;;;;25.70;94.30;;;;;;5047213;28;19923;-82
2023/07/21 10:19:22;;;;;;;;;;;25.70;94.30;;;;;;5031188;28;19917;-82
2023/07/21 10:21:49;;;;;;;;;;;25.40;93.70;;;;;;5048733;28;19973;-85
2023/07/21 10:24:24;;;;;;;;;;;25.00;93.60;;;;;;5031099;28;20319;-83
2023/07/21 10:26:59;;;;;;;;;;;24.70;93.90;;;;;;5032246;28;20403;-82
2023/07/21 10:29:25;;;;;;;;;;;24.60;94.10;;;;;;5066210;28;20019;-84
2023/07/21 10:31:54;;;;;;;;;;;25.00;93.60;;;;;;5048764;28;19927;-83
2023/07/21 10:34:36;;;;;;;;;;;25.10;93.60;;;;;;5034110;28;19917;-83
2023/07/21 10:37:02;;;;;;;;;;;25.00;93.10;;;;;;5034466;28;19932;-86
2023/07/21 10:39:29;;;;;;;;;;;25.00;93.40;;;;;;5033345;28;20279;-83
2023/07/21 10:41:58;;;;;;;;;;;25.10;93.30;;;;;;5034535;28;19980;-84
2023/07/21 10:44:30;;;;;;;;;;;24.90;92.60;;;;;;5035736;28;19916;-84
2023/07/21 10:46:56;;;;;;;;;;;24.70;93.00;;;;;;5049133;28;19925;-85
2023/07/21 10:49:22;;;;;;;;;;;24.60;93.20;;;;;;5033868;28;19940;-84
2023/07/21 10:51:48;;;;;;;;;;;24.70;93.20;;;;;;5035139;28;19970;-84
2023/07/21 10:54:14;;;;;;;;;;;25.30;93.20;;;;;;5048780;28;19964;-84
2023/07/21 10:56:42;;;;;;;;;;;26.10;92.70;;;;;;5034885;28;19921;-85
2023/07/21 10:59:11;;;;;;;;;;;27.20;92.60;;;;;;5036836;28;20385;-85
2023/07/21 11:01:45;;;;;;;;;;;28.30;91.90;;;;;;5034741;28;19921;-86
2023/07/21 11:04:11;;;;;;;;;;;29.00;91.70;;;;;;5034999;28;19975;-85
2023/07/21 11:06:40;;;;;;;;;;;29.60;91.40;;;;;;5032686;28;20020;-85
2023/07/21 11:09:09;;;;;;;;;;;30.00;90.80;;;;;;5050610;28;19921;-85
2023/07/21 11:11:35;;;;;;;;;;;30.40;90.40;;;;;;5034002;28;19996;-85
2023/07/21 11:14:00;;;;;;;;;;;29.90;90.40;;;;;;5034629;28;19956;-85
2023/07/21 11:16:26;;;;;;;;;;;29.50;90.40;;;;;;5033014;28;19913;-83
2023/07/21 11:18:52;;;;;;;;;;;29.70;88.80;;;;;;5033774;28;20523;-83
2023/07/21 11:21:17;;;;;;;;;;;29.70;86.50;;;;;;5034112;28;19924;-84
2023/07/21 11:23:43;;;;;;;;;;;30.10;86.10;;;;;;5050123;28;19964;-83
2023/07/21 11:26:12;;;;;;;;;;;30.60;85.90;;;;;;5036110;28;19925;-84
2023/07/21 11:28:41;;;;;;;;;;;31.20;84.80;;;;;;5055158;28;19925;-84
2023/07/21 11:31:12;;;;;;;;;;;31.00;83.10;;;;;;5053525;28;19912;-84
2023/07/21 11:33:48;;;;;;;;;;;31.00;83.70;;;;;;5037023;28;19956;-84
2023/07/21 11:36:18;;;;;;;;;;;31.20;83.50;;;;;;5038580;28;19974;-84
2023/07/21 11:39:01;;;;;;;;;;;30.80;82.70;;;;;;5036208;28;19912;-82
2023/07/21 11:41:47;;;;;;;;;;;30.40;80.10;;;;;;5037178;28;19925;-84
2023/07/21 11:44:19;;;;;;;;;;;30.20;81.90;;;;;;5054368;28;20357;-84
2023/07/21 11:46:58;;;;;;;;;;;30.30;81.50;;;;;;5036719;28;19921;-84
2023/07/21 11:49:28;;;;;;;;;;;30.00;82.40;;;;;;5069073;28;20413;-86
2023/07/21 11:51:54;;;;;;;;;;;29.90;83.30;;;;;;5051811;28;20050;-84
2023/07/21 11:54:23;;;;;;;;;;;30.20;83.20;;;;;;5044188;28;19916;-83
2023/07/21 11:56:49;;;;;;;;;;;30.50;82.50;;;;;;5040045;28;19979;-84
2023/07/21 11:59:15;;;;;;;;;;;30.70;82.50;;;;;;5035169;28;20022;-85
2023/07/21 12:01:41;;;;;;;;;;;31.10;81.60;;;;;;5050852;28;19925;-82
2023/07/21 12:04:06;;;;;;;;;;;30.60;80.90;;;;;;5037014;28;20445;-83
2023/07/21 12:06:32;;;;;;;;;;;29.70;82.10;;;;;;5052527;28;20282;-83
2023/07/21 12:08:57;;;;;;;;;;;29.10;82.40;;;;;;5047157;28;20361;-83
2023/07/21 12:11:23;;;;;;;;;;;28.30;84.00;;;;;;5053304;28;19921;-82
2023/07/21 12:13:49;;;;;;;;;;;27.80;83.90;;;;;;5059158;28;20418;-83
2023/07/21 12:16:14;;;;;;;;;;;27.50;84.10;;;;;;5037398;28;19970;-82
2023/07/21 12:18:42;;;;;;;;;;;27.60;83.40;;;;;;5048916;28;19921;-82
2023/07/21 12:21:08;;;;;;;;;;;27.50;83.50;;;;;;5039074;28;19913;-83
2023/07/21 12:23:35;;;;;;;;;;;27.10;82.80;;;;;;5035146;28;19950;-83
2023/07/21 12:26:00;;;;;;;;;;;26.90;83.50;;;;;;5036087;28;20523;-83
2023/07/21 12:28:26;;;;;;;;;;;27.20;83.80;;;;;;5033681;28;19924;-82
2023/07/21 12:30:52;;;;;;;;;;;27.10;83.40;;;;;;5033940;28;20407;-83
2023/07/21 12:33:17;;;;;;;;;;;26.90;83.50;;;;;;5050767;28;19970;-83
2023/07/21 12:35:43;;;;;;;;;;;26.50;84.10;;;;;;5045019;28;19921;-83
2023/07/21 12:38:09;;;;;;;;;;;26.00;85.30;;;;;;5033606;28;20340;-83
2023/07/21 12:40:35;;;;;;;;;;;25.70;85.00;;;;;;5036832;28;19924;-83
2023/07/21 12:43:00;;;;;;;;;;;25.10;86.10;;;;;;5035737;28;19921;-84
2023/07/21 12:45:26;;;;;;;;;;;24.70;87.80;;;;;;5051110;28;20043;-83
2023/07/21 12:47:51;;;;;;;;;;;24.30;89.10;;;;;;5050752;28;20003;-84
2023/07/21 12:50:17;;;;;;;;;;;24.30;89.60;;;;;;5034694;28;19916;-83
2023/07/21 12:52:42;;;;;;;;;;;24.20;90.00;;;;;;5040173;28;19917;-83
2023/07/21 12:55:08;;;;;;;;;;;23.80;90.30;;;;;;5044170;28;19927;-83
2023/07/21 12:57:34;;;;;;;;;;;23.30;90.80;;;;;;5049791;28;20299;-85
2023/07/21 12:59:59;;;;;;;;;;;22.90;91.30;;;;;;5035512;28;19960;-85
2023/07/21 13:02:25;;;;;;;;;;;22.50;91.90;;;;;;5049960;28;19975;-83
2023/07/21 13:04:50;;;;;;;;;;;22.10;92.60;;;;;;5049389;28;19967;-83
2023/07/21 13:07:16;;;;;;;;;;;21.50;95.50;;;;;;5035154;28;19931;-84
2023/07/21 13:09:41;;;;;;;;;;;20.60;97.00;;;;;;5052205;28;19920;-84
2023/07/21 13:12:07;;;;;;;;;;;20.00;97.70;;;;;;5033684;28;19936;-84
2023/07/21 13:14:34;;;;;;;;;;;19.60;98.50;;;;;;5034112;28;20870;-83
2023/07/21 13:17:00;;;;;;;;;;;19.20;99.40;;;;;;5034085;28;19920;-83
2023/07/21 13:19:25;;;;;;;;;;;19.10;99.80;;;;;;5035557;28;19932;-84
2023/07/21 13:21:52;;;;;;;;;;;18.80;99.90;;;;;;5051663;28;19939;-85
2023/07/21 13:24:17;;;;;;;;;;;18.60;99.90;;;;;;5040427;28;20371;-84
2023/07/21 13:26:43;;;;;;;;;;;18.50;99.90;;;;;;5032943;28;19925;-83
2023/07/21 13:29:10;;;;;;;;;;;18.50;99.90;;;;;;5050513;28;22185;-84
2023/07/21 13:31:35;;;;;;;;;;;18.50;99.90;;;;;;5048589;28;19923;-85
2023/07/21 13:34:02;;;;;;;;;;;18.60;99.90;;;;;;5034070;28;19988;-85
2023/07/21 13:36:28;;;;;;;;;;;18.70;99.90;;;;;;5068734;28;19927;-86
2023/07/21 13:38:53;;;;;;;;;;;18.70;99.90;;;;;;5034977;28;20352;-84
2023/07/21 13:41:19;;;;;;;;;;;18.60;99.90;;;;;;5034835;28;19917;-86
2023/07/21 13:43:44;;;;;;;;;;;18.60;99.90;;;;;;5050756;28;19961;-85
2023/07/21 13:46:10;;;;;;;;;;;18.60;99.90;;;;;;5034030;28;20004;-85
2023/07/21 13:48:36;;;;;;;;;;;18.60;99.90;;;;;;5050677;28;19970;-84
2023/07/21 13:51:02;;;;;;;;;;;18.70;99.90;;;;;;5033449;28;19916;-83
2023/07/21 13:53:28;;;;;;;;;;;19.00;99.90;;;;;;5033530;28;19920;-86
2023/07/21 13:55:53;;;;;;;;;;;19.40;99.90;;;;;;5032269;28;19921;-86
2023/07/21 13:58:19;;;;;;;;;;;19.90;99.90;;;;;;5032830;28;19996;-84
2023/07/21 14:00:44;;;;;;;;;;;20.60;99.90;;;;;;5041252;28;19916;-85
2023/07/21 14:03:10;;;;;;;;;;;21.00;99.90;;;;;;5031485;28;19912;-83
2023/07/21 14:05:35;;;;;;;;;;;21.30;99.90;;;;;;5032007;28;19939;-83
2023/07/21 14:08:00;;;;;;;;;;;21.80;99.90;;;;;;5046147;28;19929;-86
2023/07/21 14:10:26;;;;;;;;;;;22.40;99.90;;;;;;5046452;28;19916;-86
2023/07/21 14:12:52;;;;;;;;;;;23.10;99.90;;;;;;5029695;28;19924;-85